EDT,Max TemperatureF,Mean TemperatureF,Min TemperatureF,Max Dew PointF,MeanDew PointF,Min DewpointF,Max Humidity, Mean Humidity, Min Humidity, Max Sea Level PressureIn, Mean Sea Level PressureIn, Min Sea Level PressureIn, Max VisibilityMiles, Mean VisibilityMiles, Min VisibilityMiles, Max Wind SpeedMPH, Mean Wind SpeedMPH, Max Gust SpeedMPH,PrecipitationIn, CloudCover, Events, WindDirDegrees
2013-9-1,79,74,72,73,72,71,100,93,83,29.88,29.85,29.83,7,6,2,14,6,,0.01,7,Rain-Thunderstorm,185
2013-9-2,75,73,71,73,72,70,100,98,88,29.85,29.79,29.72,7,2,0,9,5,,0.41,8,Fog-Rain-Thunderstorm,149
2013-9-3,75,70,63,72,69,60,100,95,83,29.85,29.77,29.70,10,3,0,15,4,20,0.58,6,Fog-Rain,217
2013-9-4,78,67,59,62,59,56,97,73,50,29.94,29.91,29.84,10,10,9,15,7,23,0.00,0,,286
2013-9-5,79,66,55,62,55,46,97,70,42,30.13,29.97,29.89,10,9,6,13,4,21,0.00,2,,339
2013-9-6,68,59,50,50,46,40,93,65,37,30.24,30.18,30.13,10,10,10,13,8,,0.00,0,,350
2013-9-7,75,62,48,60,52,46,97,70,40,30.12,30.02,29.90,10,10,10,16,5,23,0.00,1,Rain,236
2013-9-8,81,68,55,63,55,43,84,61,35,30.08,29.87,29.78,10,10,8,16,9,26,0.00,2,,310
2013-9-9,68,56,46,55,46,41,83,62,43,30.25,30.19,30.11,10,10,10,15,8,,0.00,0,,205
2013-9-10,73,70,66,70,66,56,94,84,70,30.18,30.11,30.04,10,8,5,16,11,17,0.00,6,Rain,216
2013-9-11,87,78,68,74,70,66,97,87,65,30.11,30.07,30.01,6,4,2,12,5,16,0.00,0,Thunderstorm,210
2013-9-12,78,74,69,72,70,68,100,90,78,29.99,29.85,29.70,7,4,1,22,7,30,0.36,4,Rain-Thunderstorm,206
2013-9-13,78,71,62,70,66,55,100,85,62,29.77,29.64,29.60,10,6,0,14,3,,0.01,6,Fog-Rain,302
2013-9-14,71,62,54,54,51,48,86,70,53,30.08,29.93,29.79,10,10,10,13,9,18,0.00,2,,323
2013-9-15,68,57,48,57,49,43,90,70,45,30.18,30.12,30.08,10,10,10,14,6,,0.00,0,,289
2013-9-16,71,62,53,58,54,39,90,75,56,30.22,30.08,30.03,10,10,8,16,6,76,0.00,4,Rain,340
2013-9-17,64,54,43,45,39,35,93,62,38,30.41,30.35,30.25,10,10,10,15,11,23,0.00,0,,9
2013-9-18,68,54,42,54,45,40,96,69,40,30.34,30.26,30.18,10,10,10,13,5,,0.00,0,,281
2013-9-19,71,60,50,57,53,47,93,74,49,30.18,30.12,30.07,10,10,9,14,5,,0.00,0,,252
2013-9-20,73,60,48,63,55,46,100,89,66,30.10,30.06,30.03,10,7,0,10,3,,0.00,0,Fog,186
2013-9-21,73,64,54,67,63,53,100,88,76,30.04,29.92,29.73,10,9,2,18,8,,0.00,5,,175
2013-9-22,73,62,53,67,58,43,100,77,49,29.86,29.71,29.64,10,8,1,26,12,34,0.51,6,Rain,300
2013-9-23,64,55,46,46,43,40,80,65,47,30.02,29.94,29.86,10,10,10,15,9,20,0.00,0,,327
2013-9-24,70,56,43,50,43,39,90,67,39,30.03,29.93,29.83,10,10,10,13,6,17,0.00,0,,322
2013-9-25,71,56,45,57,49,43,93,72,47,29.96,29.91,29.87,10,10,10,12,5,22,0.00,2,,318
2013-9-26,68,59,51,52,50,48,93,74,52,30.11,30.03,29.97,10,10,10,9,6,,0.00,5,,28
2013-9-27,68,60,52,54,52,50,97,77,58,30.27,30.19,30.11,10,10,10,12,6,,0.00,6,,13
2013-9-28,72,60,50,58,53,48,97,82,59,30.31,30.28,30.25,10,10,9,10,3,,0.00,1,,341
2013-9-29,68,57,48,55,51,48,100,87,54,30.25,30.18,30.10,10,7,0,15,5,,0.00,4,Fog,25
2013-9-30,71,61,51,54,51,47,96,80,42,30.09,30.03,29.97,10,9,6,10,7,,0.00,2,,356